sensor_id;sensor_type;location;lat;lon;timestamp;P1;durP1;ratioP1;P2;durP2;ratioP2
22166;SDS011;11249;52.468;13.776;2023-05-16T00:02:22;14.88;;;13.27;;
22166;SDS011;11249;52.468;13.776;2023-05-16T00:04:49;15.02;;;13.52;;
22166;SDS011;11249;52.468;13.776;2023-05-16T00:07:16;13.30;;;12.10;;
22166;SDS011;11249;52.468;13.776;2023-05-16T00:09:43;15.23;;;13.73;;
22166;SDS011;11249;52.468;13.776;2023-05-16T00:12:10;14.57;;;13.15;;
22166;SDS011;11249;52.468;13.776;2023-05-16T00:14:36;17.15;;;14.75;;
22166;SDS011;11249;52.468;13.776;2023-05-16T00:17:03;16.92;;;15.23;;
22166;SDS011;11249;52.468;13.776;2023-05-16T00:19:37;17.23;;;15.48;;
22166;SDS011;11249;52.468;13.776;2023-05-16T00:22:04;18.20;;;15.05;;
22166;SDS011;11249;52.468;13.776;2023-05-16T00:24:31;19.15;;;16.10;;
22166;SDS011;11249;52.468;13.776;2023-05-16T00:26:59;18.63;;;16.73;;
22166;SDS011;11249;52.468;13.776;2023-05-16T00:29:26;20.10;;;17.15;;
22166;SDS011;11249;52.468;13.776;2023-05-16T00:31:52;21.88;;;17.65;;
22166;SDS011;11249;52.468;13.776;2023-05-16T00:34:19;23.25;;;17.58;;
22166;SDS011;11249;52.468;13.776;2023-05-16T00:36:51;21.15;;;16.55;;
22166;SDS011;11249;52.468;13.776;2023-05-16T00:39:18;19.30;;;16.80;;
22166;SDS011;11249;52.468;13.776;2023-05-16T00:41:45;19.60;;;16.38;;
22166;SDS011;11249;52.468;13.776;2023-05-16T00:44:11;20.30;;;16.17;;
22166;SDS011;11249;52.468;13.776;2023-05-16T00:46:38;18.08;;;16.17;;
22166;SDS011;11249;52.468;13.776;2023-05-16T00:49:05;18.95;;;15.60;;
22166;SDS011;11249;52.468;13.776;2023-05-16T00:51:33;17.02;;;15.10;;
22166;SDS011;11249;52.468;13.776;2023-05-16T00:53:59;17.38;;;15.63;;
22166;SDS011;11249;52.468;13.776;2023-05-16T00:56:27;18.10;;;16.17;;
22166;SDS011;11249;52.468;13.776;2023-05-16T00:58:53;21.25;;;16.40;;
22166;SDS011;11249;52.468;13.776;2023-05-16T01:01:20;16.15;;;14.02;;
22166;SDS011;11249;52.468;13.776;2023-05-16T01:03:50;16.02;;;14.43;;
22166;SDS011;11249;52.468;13.776;2023-05-16T01:06:17;22.42;;;15.73;;
22166;SDS011;11249;52.468;13.776;2023-05-16T01:08:44;16.98;;;15.18;;
22166;SDS011;11249;52.468;13.776;2023-05-16T01:11:15;20.88;;;15.40;;
22166;SDS011;11249;52.468;13.776;2023-05-16T01:14:11;18.77;;;15.80;;
22166;SDS011;11249;52.468;13.776;2023-05-16T01:16:55;17.20;;;13.82;;
22166;SDS011;11249;52.468;13.776;2023-05-16T01:22:35;20.52;;;15.85;;
22166;SDS011;11249;52.468;13.776;2023-05-16T01:27:53;17.92;;;15.63;;
22166;SDS011;11249;52.468;13.776;2023-05-16T01:30:21;17.20;;;15.40;;
22166;SDS011;11249;52.468;13.776;2023-05-16T01:32:48;16.67;;;14.98;;
22166;SDS011;11249;52.468;13.776;2023-05-16T01:35:16;19.20;;;15.63;;
22166;SDS011;11249;52.468;13.776;2023-05-16T01:37:48;17.52;;;15.43;;
22166;SDS011;11249;52.468;13.776;2023-05-16T01:42:59;18.05;;;15.32;;
22166;SDS011;11249;52.468;13.776;2023-05-16T01:45:33;19.40;;;15.85;;
22166;SDS011;11249;52.468;13.776;2023-05-16T01:48:06;19.15;;;15.50;;
22166;SDS011;11249;52.468;13.776;2023-05-16T01:50:38;19.30;;;15.52;;
22166;SDS011;11249;52.468;13.776;2023-05-16T01:53:11;17.40;;;15.60;;
22166;SDS011;11249;52.468;13.776;2023-05-16T01:55:44;18.70;;;16.67;;
22166;SDS011;11249;52.468;13.776;2023-05-16T01:58:13;18.15;;;15.93;;
22166;SDS011;11249;52.468;13.776;2023-05-16T02:00:42;23.95;;;17.05;;
22166;SDS011;11249;52.468;13.776;2023-05-16T02:03:10;22.25;;;17.20;;
22166;SDS011;11249;52.468;13.776;2023-05-16T02:05:37;21.33;;;17.23;;
22166;SDS011;11249;52.468;13.776;2023-05-16T02:08:04;27.98;;;18.77;;
22166;SDS011;11249;52.468;13.776;2023-05-16T02:10:31;22.15;;;18.02;;
22166;SDS011;11249;52.468;13.776;2023-05-16T02:12:58;22.67;;;19.35;;
22166;SDS011;11249;52.468;13.776;2023-05-16T02:15:24;22.13;;;19.45;;
22166;SDS011;11249;52.468;13.776;2023-05-16T02:17:52;24.70;;;21.85;;
22166;SDS011;11249;52.468;13.776;2023-05-16T02:20:18;29.02;;;23.30;;
22166;SDS011;11249;52.468;13.776;2023-05-16T02:22:45;27.48;;;23.90;;
22166;SDS011;11249;52.468;13.776;2023-05-16T02:25:13;30.98;;;25.80;;
22166;SDS011;11249;52.468;13.776;2023-05-16T02:27:41;34.75;;;26.27;;
22166;SDS011;11249;52.468;13.776;2023-05-16T02:30:09;37.17;;;26.65;;
22166;SDS011;11249;52.468;13.776;2023-05-16T02:32:37;33.00;;;27.40;;
22166;SDS011;11249;52.468;13.776;2023-05-16T02:35:05;36.35;;;29.33;;
22166;SDS011;11249;52.468;13.776;2023-05-16T02:37:33;32.75;;;28.77;;
22166;SDS011;11249;52.468;13.776;2023-05-16T02:40:00;40.22;;;28.00;;
22166;SDS011;11249;52.468;13.776;2023-05-16T02:42:27;36.10;;;29.58;;
22166;SDS011;11249;52.468;13.776;2023-05-16T02:44:54;36.95;;;30.73;;
22166;SDS011;11249;52.468;13.776;2023-05-16T02:47:21;32.20;;;28.23;;
22166;SDS011;11249;52.468;13.776;2023-05-16T02:49:48;35.55;;;28.73;;
22166;SDS011;11249;52.468;13.776;2023-05-16T02:52:15;38.10;;;28.83;;
22166;SDS011;11249;52.468;13.776;2023-05-16T02:54:42;34.72;;;28.42;;
22166;SDS011;11249;52.468;13.776;2023-05-16T02:57:10;36.05;;;28.73;;
22166;SDS011;11249;52.468;13.776;2023-05-16T02:59:37;35.30;;;29.30;;
22166;SDS011;11249;52.468;13.776;2023-05-16T03:02:04;37.80;;;30.45;;
22166;SDS011;11249;52.468;13.776;2023-05-16T03:04:31;38.15;;;29.35;;
22166;SDS011;11249;52.468;13.776;2023-05-16T03:06:58;36.63;;;30.25;;
22166;SDS011;11249;52.468;13.776;2023-05-16T03:09:25;33.88;;;29.85;;
22166;SDS011;11249;52.468;13.776;2023-05-16T03:11:52;35.25;;;29.75;;
22166;SDS011;11249;52.468;13.776;2023-05-16T03:14:19;38.92;;;28.88;;
22166;SDS011;11249;52.468;13.776;2023-05-16T03:16:46;31.27;;;27.52;;
22166;SDS011;11249;52.468;13.776;2023-05-16T03:19:13;33.65;;;26.88;;
22166;SDS011;11249;52.468;13.776;2023-05-16T03:21:40;36.10;;;26.85;;
22166;SDS011;11249;52.468;13.776;2023-05-16T03:24:06;29.83;;;26.42;;
22166;SDS011;11249;52.468;13.776;2023-05-16T03:26:34;33.65;;;26.25;;
22166;SDS011;11249;52.468;13.776;2023-05-16T03:29:00;33.80;;;26.80;;
22166;SDS011;11249;52.468;13.776;2023-05-16T03:31:31;33.50;;;26.42;;
22166;SDS011;11249;52.468;13.776;2023-05-16T03:33:58;32.58;;;25.90;;
22166;SDS011;11249;52.468;13.776;2023-05-16T03:36:25;31.85;;;26.13;;
22166;SDS011;11249;52.468;13.776;2023-05-16T03:38:52;30.67;;;24.50;;
22166;SDS011;11249;52.468;13.776;2023-05-16T03:41:19;32.55;;;24.48;;
22166;SDS011;11249;52.468;13.776;2023-05-16T03:43:46;31.92;;;24.45;;
22166;SDS011;11249;52.468;13.776;2023-05-16T03:46:13;32.83;;;24.75;;
22166;SDS011;11249;52.468;13.776;2023-05-16T03:48:39;32.05;;;25.27;;
22166;SDS011;11249;52.468;13.776;2023-05-16T03:51:06;28.65;;;23.75;;
22166;SDS011;11249;52.468;13.776;2023-05-16T03:53:33;30.88;;;23.58;;
22166;SDS011;11249;52.468;13.776;2023-05-16T03:56:00;33.33;;;24.73;;
22166;SDS011;11249;52.468;13.776;2023-05-16T03:58:26;34.28;;;24.08;;
22166;SDS011;11249;52.468;13.776;2023-05-16T04:00:53;33.42;;;25.55;;
22166;SDS011;11249;52.468;13.776;2023-05-16T04:03:20;30.42;;;24.42;;
22166;SDS011;11249;52.468;13.776;2023-05-16T04:05:53;33.03;;;23.85;;
22166;SDS011;11249;52.468;13.776;2023-05-16T04:08:21;29.30;;;23.35;;
22166;SDS011;11249;52.468;13.776;2023-05-16T04:10:50;31.23;;;25.25;;
22166;SDS011;11249;52.468;13.776;2023-05-16T04:13:17;33.15;;;24.00;;
22166;SDS011;11249;52.468;13.776;2023-05-16T04:15:44;32.67;;;24.88;;
22166;SDS011;11249;52.468;13.776;2023-05-16T04:18:11;32.22;;;23.33;;
22166;SDS011;11249;52.468;13.776;2023-05-16T04:20:38;28.92;;;23.73;;
22166;SDS011;11249;52.468;13.776;2023-05-16T04:23:05;33.83;;;24.42;;
22166;SDS011;11249;52.468;13.776;2023-05-16T04:25:31;37.58;;;25.80;;
22166;SDS011;11249;52.468;13.776;2023-05-16T04:27:58;31.73;;;24.15;;
22166;SDS011;11249;52.468;13.776;2023-05-16T04:30:25;31.08;;;23.90;;
22166;SDS011;11249;52.468;13.776;2023-05-16T04:32:52;35.35;;;25.08;;
22166;SDS011;11249;52.468;13.776;2023-05-16T04:35:18;35.30;;;24.48;;
22166;SDS011;11249;52.468;13.776;2023-05-16T04:37:47;30.67;;;24.15;;
22166;SDS011;11249;52.468;13.776;2023-05-16T04:40:13;31.83;;;24.58;;
22166;SDS011;11249;52.468;13.776;2023-05-16T04:42:40;34.67;;;25.27;;
22166;SDS011;11249;52.468;13.776;2023-05-16T04:45:07;33.45;;;23.90;;
22166;SDS011;11249;52.468;13.776;2023-05-16T04:47:36;30.27;;;24.90;;
22166;SDS011;11249;52.468;13.776;2023-05-16T04:50:04;31.13;;;24.85;;
22166;SDS011;11249;52.468;13.776;2023-05-16T04:52:31;35.47;;;25.40;;
22166;SDS011;11249;52.468;13.776;2023-05-16T04:54:58;31.02;;;24.17;;
22166;SDS011;11249;52.468;13.776;2023-05-16T04:57:25;31.83;;;24.48;;
22166;SDS011;11249;52.468;13.776;2023-05-16T04:59:53;31.45;;;24.80;;
22166;SDS011;11249;52.468;13.776;2023-05-16T05:02:19;33.30;;;23.60;;
22166;SDS011;11249;52.468;13.776;2023-05-16T05:04:46;34.40;;;24.20;;
22166;SDS011;11249;52.468;13.776;2023-05-16T05:07:13;30.73;;;24.20;;
22166;SDS011;11249;52.468;13.776;2023-05-16T05:09:40;32.50;;;24.83;;
22166;SDS011;11249;52.468;13.776;2023-05-16T05:12:09;32.22;;;24.45;;
22166;SDS011;11249;52.468;13.776;2023-05-16T05:14:36;32.78;;;24.60;;
22166;SDS011;11249;52.468;13.776;2023-05-16T05:17:03;36.22;;;25.10;;
22166;SDS011;11249;52.468;13.776;2023-05-16T05:19:29;32.15;;;25.58;;
22166;SDS011;11249;52.468;13.776;2023-05-16T05:21:56;33.63;;;25.13;;
22166;SDS011;11249;52.468;13.776;2023-05-16T05:24:23;36.97;;;25.40;;
22166;SDS011;11249;52.468;13.776;2023-05-16T05:26:50;38.30;;;24.83;;
22166;SDS011;11249;52.468;13.776;2023-05-16T05:29:16;33.83;;;25.73;;
22166;SDS011;11249;52.468;13.776;2023-05-16T05:31:43;34.58;;;26.88;;
22166;SDS011;11249;52.468;13.776;2023-05-16T05:34:10;33.60;;;26.13;;
22166;SDS011;11249;52.468;13.776;2023-05-16T05:36:36;36.45;;;26.20;;
22166;SDS011;11249;52.468;13.776;2023-05-16T05:39:03;30.65;;;26.10;;
22166;SDS011;11249;52.468;13.776;2023-05-16T05:41:30;33.33;;;26.58;;
22166;SDS011;11249;52.468;13.776;2023-05-16T05:43:57;40.38;;;28.83;;
22166;SDS011;11249;52.468;13.776;2023-05-16T05:46:23;37.78;;;28.08;;
22166;SDS011;11249;52.468;13.776;2023-05-16T05:48:51;36.63;;;28.17;;
22166;SDS011;11249;52.468;13.776;2023-05-16T05:51:18;40.85;;;29.58;;
22166;SDS011;11249;52.468;13.776;2023-05-16T05:53:45;36.30;;;27.52;;
22166;SDS011;11249;52.468;13.776;2023-05-16T05:56:11;35.20;;;27.00;;
22166;SDS011;11249;52.468;13.776;2023-05-16T05:58:38;38.22;;;28.77;;
22166;SDS011;11249;52.468;13.776;2023-05-16T06:01:07;41.35;;;26.77;;
22166;SDS011;11249;52.468;13.776;2023-05-16T06:03:34;36.80;;;28.08;;
22166;SDS011;11249;52.468;13.776;2023-05-16T06:06:00;38.92;;;28.52;;
22166;SDS011;11249;52.468;13.776;2023-05-16T06:08:27;39.75;;;28.30;;
22166;SDS011;11249;52.468;13.776;2023-05-16T06:10:54;38.00;;;27.70;;
22166;SDS011;11249;52.468;13.776;2023-05-16T06:13:21;36.33;;;28.38;;
22166;SDS011;11249;52.468;13.776;2023-05-16T06:15:50;36.40;;;28.08;;
22166;SDS011;11249;52.468;13.776;2023-05-16T06:18:18;40.92;;;28.30;;
22166;SDS011;11249;52.468;13.776;2023-05-16T06:20:45;38.30;;;28.23;;
22166;SDS011;11249;52.468;13.776;2023-05-16T06:23:12;31.70;;;27.42;;
22166;SDS011;11249;52.468;13.776;2023-05-16T06:25:39;34.72;;;26.92;;
22166;SDS011;11249;52.468;13.776;2023-05-16T06:28:05;33.65;;;26.75;;
22166;SDS011;11249;52.468;13.776;2023-05-16T06:30:32;34.00;;;24.90;;
22166;SDS011;11249;52.468;13.776;2023-05-16T06:33:00;30.98;;;23.15;;
22166;SDS011;11249;52.468;13.776;2023-05-16T06:35:26;26.80;;;22.42;;
22166;SDS011;11249;52.468;13.776;2023-05-16T06:37:54;32.53;;;21.98;;
22166;SDS011;11249;52.468;13.776;2023-05-16T06:40:20;26.88;;;21.95;;
22166;SDS011;11249;52.468;13.776;2023-05-16T06:42:47;29.40;;;22.42;;
22166;SDS011;11249;52.468;13.776;2023-05-16T06:45:14;27.95;;;21.65;;
22166;SDS011;11249;52.468;13.776;2023-05-16T06:47:40;26.73;;;20.15;;
22166;SDS011;11249;52.468;13.776;2023-05-16T06:50:07;28.05;;;21.33;;
22166;SDS011;11249;52.468;13.776;2023-05-16T06:52:36;29.25;;;22.80;;
22166;SDS011;11249;52.468;13.776;2023-05-16T06:55:03;26.13;;;21.80;;
22166;SDS011;11249;52.468;13.776;2023-05-16T06:57:30;27.65;;;21.63;;
22166;SDS011;11249;52.468;13.776;2023-05-16T06:59:56;25.23;;;20.02;;
22166;SDS011;11249;52.468;13.776;2023-05-16T07:02:23;23.38;;;20.85;;
22166;SDS011;11249;52.468;13.776;2023-05-16T07:04:50;24.60;;;19.08;;
22166;SDS011;11249;52.468;13.776;2023-05-16T07:07:17;26.70;;;19.20;;
22166;SDS011;11249;52.468;13.776;2023-05-16T07:09:43;22.33;;;17.67;;
22166;SDS011;11249;52.468;13.776;2023-05-16T07:12:10;21.45;;;17.35;;
22166;SDS011;11249;52.468;13.776;2023-05-16T07:14:37;18.60;;;14.50;;
22166;SDS011;11249;52.468;13.776;2023-05-16T07:17:06;19.27;;;15.17;;
22166;SDS011;11249;52.468;13.776;2023-05-16T07:19:33;17.45;;;14.82;;
22166;SDS011;11249;52.468;13.776;2023-05-16T07:22:00;17.65;;;14.80;;
22166;SDS011;11249;52.468;13.776;2023-05-16T07:24:27;25.38;;;16.88;;
22166;SDS011;11249;52.468;13.776;2023-05-16T07:26:54;20.58;;;15.88;;
22166;SDS011;11249;52.468;13.776;2023-05-16T07:29:21;22.23;;;16.48;;
22166;SDS011;11249;52.468;13.776;2023-05-16T07:31:48;19.45;;;15.35;;
22166;SDS011;11249;52.468;13.776;2023-05-16T07:34:15;24.02;;;14.77;;
22166;SDS011;11249;52.468;13.776;2023-05-16T07:36:42;17.27;;;13.65;;
22166;SDS011;11249;52.468;13.776;2023-05-16T07:39:09;22.50;;;15.40;;
22166;SDS011;11249;52.468;13.776;2023-05-16T07:41:35;26.45;;;16.33;;
22166;SDS011;11249;52.468;13.776;2023-05-16T07:44:02;19.45;;;15.05;;
22166;SDS011;11249;52.468;13.776;2023-05-16T07:46:29;18.23;;;14.40;;
22166;SDS011;11249;52.468;13.776;2023-05-16T07:48:56;14.88;;;12.68;;
22166;SDS011;11249;52.468;13.776;2023-05-16T07:51:23;16.30;;;11.98;;
22166;SDS011;11249;52.468;13.776;2023-05-16T07:53:49;19.73;;;12.65;;
22166;SDS011;11249;52.468;13.776;2023-05-16T07:56:17;18.02;;;11.57;;
22166;SDS011;11249;52.468;13.776;2023-05-16T07:58:44;20.15;;;12.18;;
22166;SDS011;11249;52.468;13.776;2023-05-16T08:01:11;12.75;;;10.85;;
22166;SDS011;11249;52.468;13.776;2023-05-16T08:03:38;18.70;;;12.25;;
22166;SDS011;11249;52.468;13.776;2023-05-16T08:06:05;16.63;;;11.25;;
22166;SDS011;11249;52.468;13.776;2023-05-16T08:08:32;16.55;;;11.38;;
22166;SDS011;11249;52.468;13.776;2023-05-16T08:10:58;15.57;;;11.38;;
22166;SDS011;11249;52.468;13.776;2023-05-16T08:13:25;13.40;;;11.23;;
22166;SDS011;11249;52.468;13.776;2023-05-16T08:15:52;16.40;;;9.88;;
22166;SDS011;11249;52.468;13.776;2023-05-16T08:18:19;14.68;;;10.88;;
22166;SDS011;11249;52.468;13.776;2023-05-16T08:20:48;13.25;;;9.82;;
22166;SDS011;11249;52.468;13.776;2023-05-16T08:23:14;14.80;;;9.50;;
22166;SDS011;11249;52.468;13.776;2023-05-16T08:25:41;12.52;;;9.35;;
22166;SDS011;11249;52.468;13.776;2023-05-16T08:28:08;12.98;;;9.23;;
22166;SDS011;11249;52.468;13.776;2023-05-16T08:30:35;13.43;;;9.77;;
22166;SDS011;11249;52.468;13.776;2023-05-16T08:33:01;13.57;;;8.57;;
22166;SDS011;11249;52.468;13.776;2023-05-16T08:35:30;12.27;;;8.80;;
22166;SDS011;11249;52.468;13.776;2023-05-16T08:37:57;12.93;;;9.40;;
22166;SDS011;11249;52.468;13.776;2023-05-16T08:40:27;12.00;;;8.45;;
22166;SDS011;11249;52.468;13.776;2023-05-16T08:42:54;10.75;;;8.77;;
22166;SDS011;11249;52.468;13.776;2023-05-16T08:45:21;12.43;;;7.28;;
22166;SDS011;11249;52.468;13.776;2023-05-16T08:47:49;9.85;;;7.10;;
22166;SDS011;11249;52.468;13.776;2023-05-16T08:50:19;10.77;;;6.68;;
22166;SDS011;11249;52.468;13.776;2023-05-16T08:52:46;9.02;;;6.22;;
22166;SDS011;11249;52.468;13.776;2023-05-16T08:55:18;8.82;;;6.43;;
22166;SDS011;11249;52.468;13.776;2023-05-16T08:57:47;9.90;;;5.80;;
22166;SDS011;11249;52.468;13.776;2023-05-16T09:00:16;9.25;;;6.00;;
22166;SDS011;11249;52.468;13.776;2023-05-16T09:02:44;8.00;;;5.53;;
22166;SDS011;11249;52.468;13.776;2023-05-16T09:05:12;10.68;;;6.63;;
22166;SDS011;11249;52.468;13.776;2023-05-16T09:07:40;6.07;;;5.27;;
22166;SDS011;11249;52.468;13.776;2023-05-16T09:10:08;13.63;;;6.15;;
22166;SDS011;11249;52.468;13.776;2023-05-16T09:12:37;6.38;;;5.25;;
22166;SDS011;11249;52.468;13.776;2023-05-16T09:15:05;7.88;;;5.32;;
22166;SDS011;11249;52.468;13.776;2023-05-16T09:17:37;6.97;;;4.68;;
22166;SDS011;11249;52.468;13.776;2023-05-16T09:20:14;8.95;;;5.07;;
22166;SDS011;11249;52.468;13.776;2023-05-16T09:22:50;6.28;;;4.88;;
22166;SDS011;11249;52.468;13.776;2023-05-16T09:25:18;9.10;;;4.68;;
22166;SDS011;11249;52.468;13.776;2023-05-16T09:27:57;8.77;;;4.35;;
22166;SDS011;11249;52.468;13.776;2023-05-16T09:30:28;7.50;;;4.50;;
22166;SDS011;11249;52.468;13.776;2023-05-16T09:32:57;7.90;;;4.35;;
22166;SDS011;11249;52.468;13.776;2023-05-16T09:35:24;9.32;;;4.20;;
22166;SDS011;11249;52.468;13.776;2023-05-16T09:38:13;7.35;;;4.10;;
22166;SDS011;11249;52.468;13.776;2023-05-16T09:40:41;5.72;;;3.35;;
22166;SDS011;11249;52.468;13.776;2023-05-16T09:43:08;8.95;;;3.60;;
22166;SDS011;11249;52.468;13.776;2023-05-16T09:45:35;6.75;;;3.35;;
22166;SDS011;11249;52.468;13.776;2023-05-16T09:48:11;7.13;;;3.33;;
22166;SDS011;11249;52.468;13.776;2023-05-16T09:50:38;7.65;;;3.58;;
22166;SDS011;11249;52.468;13.776;2023-05-16T09:53:06;5.75;;;3.30;;
22166;SDS011;11249;52.468;13.776;2023-05-16T09:55:33;7.50;;;3.30;;
22166;SDS011;11249;52.468;13.776;2023-05-16T09:57:59;8.82;;;3.20;;
22166;SDS011;11249;52.468;13.776;2023-05-16T10:00:30;7.47;;;3.15;;
22166;SDS011;11249;52.468;13.776;2023-05-16T10:02:59;7.75;;;2.85;;
22166;SDS011;11249;52.468;13.776;2023-05-16T10:05:31;6.38;;;3.35;;
22166;SDS011;11249;52.468;13.776;2023-05-16T10:07:58;14.85;;;4.15;;
22166;SDS011;11249;52.468;13.776;2023-05-16T10:10:28;7.85;;;3.28;;
22166;SDS011;11249;52.468;13.776;2023-05-16T10:12:57;5.20;;;2.50;;
22166;SDS011;11249;52.468;13.776;2023-05-16T10:15:27;6.47;;;2.60;;
22166;SDS011;11249;52.468;13.776;2023-05-16T10:17:55;5.50;;;2.65;;
22166;SDS011;11249;52.468;13.776;2023-05-16T10:20:25;8.95;;;2.70;;
22166;SDS011;11249;52.468;13.776;2023-05-16T10:22:52;6.85;;;2.80;;
22166;SDS011;11249;52.468;13.776;2023-05-16T10:25:25;6.40;;;2.70;;
22166;SDS011;11249;52.468;13.776;2023-05-16T10:27:57;5.90;;;2.60;;
22166;SDS011;11249;52.468;13.776;2023-05-16T10:30:25;5.68;;;2.45;;
22166;SDS011;11249;52.468;13.776;2023-05-16T10:32:52;8.13;;;2.53;;
22166;SDS011;11249;52.468;13.776;2023-05-16T10:35:20;6.25;;;2.15;;
22166;SDS011;11249;52.468;13.776;2023-05-16T10:37:47;4.55;;;2.53;;
22166;SDS011;11249;52.468;13.776;2023-05-16T10:40:16;4.90;;;2.30;;
22166;SDS011;11249;52.468;13.776;2023-05-16T10:42:54;6.18;;;2.70;;
22166;SDS011;11249;52.468;13.776;2023-05-16T10:45:25;7.85;;;2.38;;
22166;SDS011;11249;52.468;13.776;2023-05-16T10:47:57;7.72;;;2.47;;
22166;SDS011;11249;52.468;13.776;2023-05-16T10:50:36;7.82;;;2.05;;
22166;SDS011;11249;52.468;13.776;2023-05-16T11:06:23;5.65;;;2.20;;
22166;SDS011;11249;52.468;13.776;2023-05-16T11:11:45;7.75;;;2.55;;
22166;SDS011;11249;52.468;13.776;2023-05-16T11:14:21;5.88;;;2.25;;
22166;SDS011;11249;52.468;13.776;2023-05-16T11:16:49;8.38;;;3.47;;
22166;SDS011;11249;52.468;13.776;2023-05-16T11:19:27;8.98;;;2.90;;
22166;SDS011;11249;52.468;13.776;2023-05-16T11:25:01;6.80;;;2.83;;
22166;SDS011;11249;52.468;13.776;2023-05-16T11:27:33;6.85;;;2.75;;
22166;SDS011;11249;52.468;13.776;2023-05-16T11:30:13;8.20;;;2.90;;
22166;SDS011;11249;52.468;13.776;2023-05-16T11:32:43;9.07;;;3.50;;
22166;SDS011;11249;52.468;13.776;2023-05-16T11:35:12;7.82;;;3.72;;
22166;SDS011;11249;52.468;13.776;2023-05-16T11:37:43;8.52;;;3.03;;
22166;SDS011;11249;52.468;13.776;2023-05-16T11:40:11;7.28;;;2.78;;
22166;SDS011;11249;52.468;13.776;2023-05-16T11:42:40;6.85;;;2.95;;
22166;SDS011;11249;52.468;13.776;2023-05-16T11:47:40;11.13;;;2.85;;
22166;SDS011;11249;52.468;13.776;2023-05-16T11:50:13;13.23;;;3.63;;
22166;SDS011;11249;52.468;13.776;2023-05-16T11:52:42;14.63;;;3.67;;
22166;SDS011;11249;52.468;13.776;2023-05-16T11:55:14;12.95;;;3.42;;
22166;SDS011;11249;52.468;13.776;2023-05-16T11:58:03;8.48;;;3.35;;
22166;SDS011;11249;52.468;13.776;2023-05-16T12:00:31;11.88;;;3.72;;
22166;SDS011;11249;52.468;13.776;2023-05-16T12:03:02;13.43;;;3.35;;
22166;SDS011;11249;52.468;13.776;2023-05-16T12:05:31;6.13;;;2.72;;
22166;SDS011;11249;52.468;13.776;2023-05-16T12:08:00;8.55;;;2.95;;
22166;SDS011;11249;52.468;13.776;2023-05-16T12:10:30;10.15;;;3.70;;
22166;SDS011;11249;52.468;13.776;2023-05-16T12:13:00;14.52;;;3.40;;
22166;SDS011;11249;52.468;13.776;2023-05-16T12:15:27;7.25;;;2.75;;
22166;SDS011;11249;52.468;13.776;2023-05-16T12:17:54;16.08;;;3.53;;
22166;SDS011;11249;52.468;13.776;2023-05-16T12:20:22;7.40;;;2.47;;
22166;SDS011;11249;52.468;13.776;2023-05-16T12:22:51;11.10;;;2.97;;
22166;SDS011;11249;52.468;13.776;2023-05-16T12:25:30;11.68;;;3.00;;
22166;SDS011;11249;52.468;13.776;2023-05-16T12:30:26;4.63;;;2.50;;
22166;SDS011;11249;52.468;13.776;2023-05-16T12:32:55;9.27;;;3.35;;
22166;SDS011;11249;52.468;13.776;2023-05-16T12:35:23;11.10;;;2.72;;
22166;SDS011;11249;52.468;13.776;2023-05-16T12:37:51;9.57;;;2.75;;
22166;SDS011;11249;52.468;13.776;2023-05-16T12:40:18;9.27;;;2.80;;
22166;SDS011;11249;52.468;13.776;2023-05-16T12:42:55;8.45;;;2.72;;
22166;SDS011;11249;52.468;13.776;2023-05-16T12:45:21;9.68;;;3.03;;
22166;SDS011;11249;52.468;13.776;2023-05-16T12:47:48;6.65;;;2.65;;
22166;SDS011;11249;52.468;13.776;2023-05-16T12:50:16;13.30;;;2.80;;
22166;SDS011;11249;52.468;13.776;2023-05-16T12:55:17;6.35;;;2.42;;
22166;SDS011;11249;52.468;13.776;2023-05-16T12:57:45;9.35;;;2.88;;
22166;SDS011;11249;52.468;13.776;2023-05-16T13:00:14;8.38;;;2.53;;
22166;SDS011;11249;52.468;13.776;2023-05-16T13:02:44;9.48;;;2.53;;
22166;SDS011;11249;52.468;13.776;2023-05-16T13:05:12;11.60;;;2.67;;
22166;SDS011;11249;52.468;13.776;2023-05-16T13:07:39;10.77;;;2.70;;
22166;SDS011;11249;52.468;13.776;2023-05-16T13:10:07;8.60;;;3.13;;
22166;SDS011;11249;52.468;13.776;2023-05-16T13:12:36;9.83;;;2.93;;
22166;SDS011;11249;52.468;13.776;2023-05-16T13:15:05;12.90;;;2.88;;
22166;SDS011;11249;52.468;13.776;2023-05-16T13:17:35;8.38;;;2.35;;
22166;SDS011;11249;52.468;13.776;2023-05-16T13:20:03;10.38;;;2.83;;
22166;SDS011;11249;52.468;13.776;2023-05-16T13:22:35;12.43;;;2.45;;
22166;SDS011;11249;52.468;13.776;2023-05-16T13:25:02;11.95;;;2.78;;
22166;SDS011;11249;52.468;13.776;2023-05-16T13:27:30;8.73;;;2.40;;
22166;SDS011;11249;52.468;13.776;2023-05-16T13:29:57;9.68;;;2.33;;
22166;SDS011;11249;52.468;13.776;2023-05-16T13:32:24;9.02;;;2.25;;
22166;SDS011;11249;52.468;13.776;2023-05-16T13:34:51;9.05;;;2.65;;
22166;SDS011;11249;52.468;13.776;2023-05-16T13:37:19;8.77;;;2.92;;
22166;SDS011;11249;52.468;13.776;2023-05-16T13:39:46;11.00;;;2.95;;
22166;SDS011;11249;52.468;13.776;2023-05-16T13:42:13;10.20;;;2.92;;
22166;SDS011;11249;52.468;13.776;2023-05-16T13:44:40;9.05;;;2.72;;
22166;SDS011;11249;52.468;13.776;2023-05-16T13:47:07;8.40;;;2.33;;
22166;SDS011;11249;52.468;13.776;2023-05-16T13:49:34;10.82;;;2.47;;
22166;SDS011;11249;52.468;13.776;2023-05-16T13:52:01;14.57;;;2.90;;
22166;SDS011;11249;52.468;13.776;2023-05-16T13:54:27;12.57;;;2.80;;
22166;SDS011;11249;52.468;13.776;2023-05-16T13:56:54;10.15;;;2.28;;
22166;SDS011;11249;52.468;13.776;2023-05-16T13:59:21;8.75;;;2.53;;
22166;SDS011;11249;52.468;13.776;2023-05-16T14:02:08;8.75;;;2.72;;
22166;SDS011;11249;52.468;13.776;2023-05-16T14:04:35;13.52;;;2.60;;
22166;SDS011;11249;52.468;13.776;2023-05-16T14:07:01;10.35;;;2.47;;
22166;SDS011;11249;52.468;13.776;2023-05-16T14:09:28;11.65;;;2.58;;
22166;SDS011;11249;52.468;13.776;2023-05-16T14:11:55;11.68;;;2.65;;
22166;SDS011;11249;52.468;13.776;2023-05-16T14:14:22;12.00;;;2.42;;
22166;SDS011;11249;52.468;13.776;2023-05-16T14:16:48;9.80;;;2.35;;
22166;SDS011;11249;52.468;13.776;2023-05-16T14:19:15;6.60;;;2.20;;
22166;SDS011;11249;52.468;13.776;2023-05-16T14:21:44;9.13;;;2.65;;
22166;SDS011;11249;52.468;13.776;2023-05-16T14:24:11;7.63;;;2.05;;
22166;SDS011;11249;52.468;13.776;2023-05-16T14:26:38;7.47;;;2.47;;
22166;SDS011;11249;52.468;13.776;2023-05-16T14:29:05;9.23;;;1.70;;
22166;SDS011;11249;52.468;13.776;2023-05-16T14:31:32;11.00;;;2.45;;
22166;SDS011;11249;52.468;13.776;2023-05-16T14:34:01;9.80;;;2.17;;
22166;SDS011;11249;52.468;13.776;2023-05-16T14:36:28;11.43;;;2.55;;
22166;SDS011;11249;52.468;13.776;2023-05-16T14:38:57;10.85;;;2.35;;
22166;SDS011;11249;52.468;13.776;2023-05-16T14:41:23;6.60;;;1.85;;
22166;SDS011;11249;52.468;13.776;2023-05-16T14:43:50;8.05;;;1.92;;
22166;SDS011;11249;52.468;13.776;2023-05-16T14:46:17;8.25;;;1.65;;
22166;SDS011;11249;52.468;13.776;2023-05-16T14:48:44;10.13;;;2.40;;
22166;SDS011;11249;52.468;13.776;2023-05-16T14:51:11;8.23;;;2.20;;
22166;SDS011;11249;52.468;13.776;2023-05-16T14:53:38;6.97;;;1.80;;
22166;SDS011;11249;52.468;13.776;2023-05-16T14:56:05;6.63;;;1.70;;
22166;SDS011;11249;52.468;13.776;2023-05-16T14:58:32;7.45;;;1.98;;
22166;SDS011;11249;52.468;13.776;2023-05-16T15:00:58;6.50;;;2.58;;